Huvudsida
METAR-TAF:

METAR-TAF

Flygplatser :

Dire Dawa Airport

Dire Dawa, Etiopien

latitud: 09-36N, longitud: 041-52E, höjd: 1146 m

METAR: saknas

Tid: 22:30 (19:30 UTC)

Väderprognos

Denna rapport gjordes för 4 timmar och 0 minuter sedan, klockan 15:30 UTC
Prognos gäller från 14 kl. 18 UTC till 15 kl. 24 UTC
Vind 7 kt från nordväst
Sikt: 9000 m
Få moln på en höjd av 3000 ft
Få moln på en höjd av 8000 ft
Brutna moln på en höjd av 2000 ft
regn,

TAF: HADR 141530Z 1418/1524 18010KT 9999 FEW030 FEW080 BCMG 1510/1514 32007KT 9000 RA BKN020

Aktuella väderrapporter och prognoser från 4000 flygplatser (METAR- och TAF-rapporter).

De tillgängliga stationerna syns som gula och röda prickar på kartan.

För musen över prickarna för att se namnen på stationerna.

Klicka sedan för att få väderrapporter och prognoser.

För att ändra kartan: Klicka på de gröna knapparna med ett svart kors på för att zooma in; den gröna knappen med ett streck på för att zooma ut; eller på de gröna pilarna för angränsande kartor.


METAR-TAF: